Share

Gillette, WY

4:32 PM MDT on April 24, 2014 (GMT -0600)
RAWS ECHETA WY US (MECEW4) Elev 4396 ft | 44.47 °N, 105.84 °W | Change Station

Current weather conditions updated 41 minutes ago

Clear
Clear
62 °F
Feels Like 62 °F
N
8
Wind Variable Wind from NNE
Gusts 16.0 mph
Sunrise 6:03 AM
Sunset 7:58 PM
Moon Waning Crescent

Tomorrow is forecast to be Warmer than today.

Pressure 29.74 in
Visibility 10.0 miles
Clouds Clear
Dew Point 18 °F
Humidity 18%
Rainfall 0.00 in
Snow Depth Not available.
UV 6 out of 16
Pollen 10.40 out of 12
Air Quality Not available.
Flu Activity Sporadic
METAR KGCC 242153Z AUTO 28005KT 10SM CLR 16/M07 A2976 RMK AO2 SLP069 T01611067

More Conditions Fewer Conditions

Pressure 29.74 in
Visibility 10.0 miles
Clouds Clear
Dew Point 18 °F
Humidity 18%
Rainfall 0.00 in
Snow Depth Not available.
UV 6 out of 16
Pollen 10.40 out of 12
Air Quality Not available.
Flu Activity Sporadic
METAR KGCC 242153Z AUTO 28005KT 10SM CLR 16/M07 A2976 RMK AO2 SLP069 T01611067

More Conditions Fewer Conditions

10-Day Weather Forecast

Almanac

Astronomy

Apr. 24, 2014 Rise Set
Actual Time 6:03 AM MDT 7:58 PM MDT
Civil Twilight 5:32 AM MDT 8:30 PM MDT
Nautical Twilight 4:54 AM MDT 9:08 PM MDT
Astronomical Twilight 4:12 AM MDT 9:50 PM MDT
Moon 3:28 AM MDT 3:06 PM MDT
Length of Visible Light 14h 57m
Length of Day
13h 55m
Tomorrow will be 2m 48s longer.
Waning Crescent, 22% of the Moon is Illuminated
Today
Waning Crescent
Apr 29
New
May 6
First Quarter
May 14
Full
May 21
Last Quarter

Today's Extremes

State Highs State Lows

Community

  • Jone Runs Falls
    Jone Runs Falls
  • Easter in Shenandoah National Park
    Easter in Shenandoah National Park
  • Sunset at Apalachicola Bay, Florida
    Sunset at Apalachicola Bay, Florida
  • Clouds mov'n in
    Clouds mov'n in
  • Stacked
    Stacked

WunderPhotos

Upload Photos

1,704,732 photos uploaded!

Nearby

Snow Depth

Station Depth Elevation
Casper Mountain 43 in 7850 ft
Reno Hill 47 in 8500 ft
Windy Peak 16 in 7900 ft
Townsend Creek 20 in 8700 ft
Sand Lake 89 in 10050 ft

Coastal Water Temperatures

Place Temperature
No Stations Reporting

Earthquake Activity

City Distance Mag. Time & Date
No recent earthquake activity has been reported nearby.
Minimum magnitude displayed is 2.5.

Nearby Weather Stations

Station Location Temp. Dew Point Humidity Wind Precip. Elev Updated Type
RAWS ECHETA WY, Gillette, WY 62 °F 18 °F 18% NNE  at  8 mph 0.00 in / hr 4396 ft 3:51 PM MDT MADIS
(North Gillette), Gillette, WY 62.9 °F 26 °F 24% NNE  at  0.0 mph 0.00 in / hr 4610 ft 4:32 PM MDT Rapid Fire

Show More Stations Show Fewer Stations

What do you think?

We're not finished. Please let us know what you like, what you don't like, and what you are still missing.